Time;durP1;ratioP1;P1;durP2;ratioP2;P2;SDS_P1;SDS_P2;PMS_P1;PMS_P2;Temp;Humidity;BMP_temperature;BMP_pressure;BME280_temperature;BME280_humidity;BME280_pressure;Samples;Min_cycle;Max_cycle;Signal;HPM_P1;HPM_P2
2022/01/02 00:02:22;;;;;;;15.57;8.20;;;9.50;99.90;;;;;;5008566;28;20216;-73
2022/01/02 00:04:52;;;;;;;14.57;8.53;;;9.40;99.90;;;;;;5008611;28;20604;-73
2022/01/02 00:07:21;;;;;;;13.53;8.10;;;9.40;99.90;;;;;;5009125;28;20204;-74
2022/01/02 00:09:52;;;;;;;15.70;8.90;;;9.40;99.90;;;;;;5009178;28;20208;-74
2022/01/02 00:12:21;;;;;;;13.23;8.43;;;9.40;99.90;;;;;;5008424;28;20230;-73
2022/01/02 00:14:52;;;;;;;13.57;8.33;;;9.50;99.90;;;;;;5006705;28;20208;-73
2022/01/02 00:17:22;;;;;;;15.73;8.57;;;9.50;99.90;;;;;;5010320;28;20576;-74
2022/01/02 00:19:54;;;;;;;13.00;7.50;;;9.60;99.90;;;;;;5008885;28;20230;-74
2022/01/02 00:22:27;;;;;;;15.03;7.70;;;9.70;99.90;;;;;;5008659;28;20204;-73
2022/01/02 00:24:55;;;;;;;12.50;7.03;;;9.60;99.90;;;;;;5007518;28;20675;-74
2022/01/02 00:27:22;;;;;;;14.40;7.00;;;9.60;99.90;;;;;;5009675;28;20204;-74
2022/01/02 00:29:51;;;;;;;12.80;7.13;;;9.60;99.90;;;;;;5007161;28;20209;-73
2022/01/02 00:32:19;;;;;;;11.17;6.93;;;9.80;99.90;;;;;;5009531;28;20514;-74
2022/01/02 00:34:52;;;;;;;12.33;6.90;;;10.10;99.90;;;;;;5008869;28;20204;-74
2022/01/02 00:37:19;;;;;;;10.10;6.33;;;10.00;99.90;;;;;;5008607;28;20262;-73
2022/01/02 00:39:46;;;;;;;12.73;6.23;;;10.00;99.90;;;;;;5008233;28;20204;-74
2022/01/02 00:42:18;;;;;;;10.03;5.93;;;10.10;99.90;;;;;;5002458;28;20204;-74
2022/01/02 00:44:57;;;;;;;10.50;6.10;;;10.20;99.90;;;;;;5007549;28;20205;-74
2022/01/02 00:47:31;;;;;;;12.77;6.23;;;10.40;99.90;;;;;;5007755;28;20211;-74
2022/01/02 00:50:09;;;;;;;8.93;5.23;;;10.40;99.90;;;;;;5005872;28;20210;-74
2022/01/02 00:52:38;;;;;;;8.53;5.00;;;10.30;99.90;;;;;;5005525;28;20398;-74
2022/01/02 00:55:07;;;;;;;9.90;5.43;;;10.30;99.90;;;;;;5006520;28;20547;-74
2022/01/02 00:57:37;;;;;;;7.97;4.93;;;10.60;99.90;;;;;;5008278;28;20209;-74
2022/01/02 01:00:09;;;;;;;8.30;4.87;;;10.70;99.90;;;;;;5008108;28;20439;-74
2022/01/02 01:02:41;;;;;;;7.20;5.10;;;10.70;99.90;;;;;;5008756;28;20662;-74
2022/01/02 01:05:10;;;;;;;8.63;5.33;;;10.50;99.90;;;;;;5014429;28;20196;-74
2022/01/02 01:07:39;;;;;;;9.57;5.30;;;10.40;99.90;;;;;;5008570;28;20234;-74
2022/01/02 01:10:11;;;;;;;10.13;5.80;;;10.30;99.90;;;;;;5009361;28;20224;-73
2022/01/02 01:12:38;;;;;;;11.67;6.23;;;10.30;99.90;;;;;;5007674;28;20220;-74
2022/01/02 01:15:07;;;;;;;9.83;5.63;;;10.20;99.90;;;;;;5006468;28;20200;-74
2022/01/02 01:17:37;;;;;;;9.43;5.80;;;10.30;99.90;;;;;;5007777;28;20581;-74
2022/01/02 01:20:04;;;;;;;10.30;5.60;;;10.20;99.90;;;;;;5003255;28;20538;-74
2022/01/02 01:22:32;;;;;;;10.00;5.53;;;10.10;99.90;;;;;;5006857;28;20200;-74
2022/01/02 01:24:59;;;;;;;9.30;5.80;;;10.20;99.90;;;;;;5015124;28;20484;-74
2022/01/02 01:27:27;;;;;;;8.83;6.10;;;10.30;99.90;;;;;;5007785;28;20204;-74
2022/01/02 01:29:54;;;;;;;11.43;5.20;;;10.30;99.90;;;;;;5007649;28;20200;-74
2022/01/02 01:32:21;;;;;;;13.40;7.27;;;10.60;99.90;;;;;;5006675;28;20216;-74
2022/01/02 01:34:47;;;;;;;9.10;5.70;;;10.60;99.90;;;;;;5007389;28;20215;-74
2022/01/02 01:37:14;;;;;;;9.67;5.77;;;10.60;99.90;;;;;;5008707;28;20208;-74
2022/01/02 01:39:42;;;;;;;11.70;5.80;;;10.50;99.90;;;;;;5007438;28;20662;-74
2022/01/02 01:42:11;;;;;;;11.00;6.23;;;10.50;99.90;;;;;;5008143;28;20568;-74
2022/01/02 01:44:51;;;;;;;10.43;5.47;;;10.60;99.90;;;;;;5008084;28;20211;-75
2022/01/02 01:47:18;;;;;;;9.93;4.93;;;10.80;99.90;;;;;;5008359;28;20629;-75
2022/01/02 01:49:45;;;;;;;8.57;5.60;;;11.00;99.90;;;;;;5007626;28;20204;-74
2022/01/02 01:52:11;;;;;;;8.20;4.90;;;11.00;99.90;;;;;;5007542;28;20567;-75
2022/01/02 01:54:38;;;;;;;8.23;5.10;;;10.90;99.90;;;;;;5006559;28;20204;-75
2022/01/02 01:57:07;;;;;;;11.63;5.00;;;10.80;99.90;;;;;;5006409;28;20204;-75
2022/01/02 01:59:34;;;;;;;9.33;5.00;;;10.70;99.90;;;;;;5008925;28;20591;-75
2022/01/02 02:02:01;;;;;;;10.27;5.30;;;10.80;99.90;;;;;;5006113;28;20205;-75
2022/01/02 02:04:29;;;;;;;8.97;4.97;;;10.90;99.90;;;;;;5008372;28;20262;-75
2022/01/02 02:06:58;;;;;;;8.97;5.27;;;11.00;99.90;;;;;;5007213;28;20208;-74
2022/01/02 02:09:29;;;;;;;8.93;5.40;;;11.10;99.90;;;;;;5008133;28;20228;-75
2022/01/02 02:11:59;;;;;;;8.73;5.23;;;11.00;99.90;;;;;;5006465;28;20239;-75
2022/01/02 02:14:28;;;;;;;8.60;5.10;;;11.00;99.90;;;;;;5007290;28;20208;-75
2022/01/02 02:16:55;;;;;;;8.93;5.50;;;10.90;99.90;;;;;;5006822;28;20205;-75
2022/01/02 02:19:22;;;;;;;8.33;5.20;;;10.90;99.90;;;;;;5007416;28;20208;-74
2022/01/02 02:21:50;;;;;;;9.60;5.80;;;11.00;99.90;;;;;;5007386;28;20193;-75
2022/01/02 02:24:18;;;;;;;10.47;6.23;;;11.10;99.90;;;;;;5007158;28;20204;-75
2022/01/02 02:26:47;;;;;;;11.73;6.03;;;11.10;99.90;;;;;;5007761;28;20212;-75
2022/01/02 02:29:15;;;;;;;11.07;5.77;;;11.10;99.90;;;;;;5007058;28;20211;-74
2022/01/02 02:31:43;;;;;;;10.70;6.20;;;11.00;99.90;;;;;;5006345;28;20328;-74
2022/01/02 02:34:10;;;;;;;13.33;6.30;;;11.00;99.90;;;;;;5007466;28;20211;-75
2022/01/02 02:36:36;;;;;;;10.53;6.23;;;11.00;99.90;;;;;;4989153;28;20215;-75
2022/01/02 02:39:05;;;;;;;10.03;6.37;;;11.00;99.90;;;;;;5008156;28;20211;-74
2022/01/02 02:41:35;;;;;;;11.63;6.53;;;10.90;99.90;;;;;;5004516;28;20201;-75
2022/01/02 02:44:07;;;;;;;10.63;6.03;;;11.00;99.90;;;;;;5001151;28;20235;-75
2022/01/02 02:49:18;;;;;;;11.13;6.23;;;10.90;99.90;;;;;;5004211;28;20211;-75
2022/01/02 02:51:50;;;;;;;11.83;6.07;;;11.00;99.90;;;;;;5001311;28;20228;-75
2022/01/02 02:54:21;;;;;;;11.93;6.17;;;11.00;99.90;;;;;;5006943;28;20204;-74
2022/01/02 02:56:56;;;;;;;11.33;6.53;;;11.10;99.90;;;;;;5007371;28;20230;-74
2022/01/02 02:59:24;;;;;;;14.80;6.77;;;11.10;99.90;;;;;;5010330;28;20548;-74
2022/01/02 03:01:51;;;;;;;13.80;6.83;;;11.10;99.90;;;;;;5010257;28;20259;-75
2022/01/02 03:04:18;;;;;;;11.83;6.97;;;11.10;99.90;;;;;;5010370;28;20570;-76
2022/01/02 03:06:45;;;;;;;9.80;6.37;;;11.10;99.90;;;;;;5011385;28;20225;-76
2022/01/02 03:09:12;;;;;;;12.53;6.67;;;11.20;99.90;;;;;;5010850;28;20201;-76
2022/01/02 03:11:42;;;;;;;11.80;6.70;;;11.30;99.90;;;;;;5011020;28;20220;-76
2022/01/02 03:14:11;;;;;;;14.33;6.53;;;11.20;99.90;;;;;;5014520;28;20192;-76
2022/01/02 03:16:39;;;;;;;12.97;7.00;;;11.20;99.90;;;;;;5014644;28;20212;-75
2022/01/02 03:19:06;;;;;;;12.00;6.20;;;11.40;99.90;;;;;;5015014;28;20194;-75
2022/01/02 03:21:33;;;;;;;12.73;7.03;;;11.20;99.90;;;;;;5026556;28;20208;-75
2022/01/02 03:24:00;;;;;;;10.93;6.27;;;11.20;99.90;;;;;;5013969;28;20197;-76
2022/01/02 03:26:27;;;;;;;13.93;6.50;;;11.20;99.90;;;;;;5013137;28;20319;-76
2022/01/02 03:28:55;;;;;;;10.87;7.37;;;11.10;99.90;;;;;;5014883;28;20215;-75
2022/01/02 03:31:22;;;;;;;12.23;6.77;;;11.00;99.90;;;;;;5012831;28;20201;-75
2022/01/02 03:33:49;;;;;;;14.07;7.13;;;11.10;99.90;;;;;;5013012;28;20263;-76
2022/01/02 03:36:16;;;;;;;11.87;7.03;;;11.10;99.90;;;;;;5014532;28;20208;-76
2022/01/02 03:38:43;;;;;;;12.13;6.70;;;11.10;99.90;;;;;;5013431;28;20697;-76
2022/01/02 03:41:10;;;;;;;12.33;6.10;;;11.10;99.90;;;;;;5014202;28;20196;-76
2022/01/02 03:43:37;;;;;;;13.30;7.47;;;11.10;99.90;;;;;;5013519;28;20655;-75
2022/01/02 03:46:05;;;;;;;11.37;7.13;;;11.10;99.90;;;;;;5014263;28;20196;-76
2022/01/02 03:48:33;;;;;;;13.07;6.63;;;11.10;99.90;;;;;;5013354;28;20197;-76
2022/01/02 03:51:00;;;;;;;13.20;7.63;;;11.00;99.90;;;;;;5013555;28;20233;-73
2022/01/02 03:53:27;;;;;;;13.33;6.90;;;11.00;99.90;;;;;;5013142;28;20702;-74
2022/01/02 03:55:54;;;;;;;13.33;7.10;;;11.00;99.90;;;;;;5014217;28;20689;-74
2022/01/02 03:58:21;;;;;;;11.80;7.60;;;11.00;99.90;;;;;;5012808;28;20201;-75
2022/01/02 04:00:48;;;;;;;15.03;7.07;;;11.10;99.90;;;;;;5013612;28;20204;-75
2022/01/02 04:03:16;;;;;;;11.20;6.90;;;11.10;99.90;;;;;;5013733;28;20206;-75
2022/01/02 04:05:44;;;;;;;11.00;6.83;;;11.00;99.90;;;;;;5013596;28;20207;-74
2022/01/02 04:08:11;;;;;;;11.50;7.03;;;11.20;99.90;;;;;;5013912;28;20204;-74
2022/01/02 04:10:38;;;;;;;11.60;6.77;;;11.20;99.90;;;;;;5013817;28;20211;-75
2022/01/02 04:13:06;;;;;;;10.33;6.77;;;11.40;99.90;;;;;;5013304;28;20212;-74
2022/01/02 04:15:34;;;;;;;11.97;7.57;;;11.30;99.90;;;;;;5014226;28;20242;-74
2022/01/02 04:18:00;;;;;;;11.90;7.03;;;11.30;99.90;;;;;;5012712;28;20207;-74
2022/01/02 04:20:29;;;;;;;11.40;6.63;;;11.30;99.90;;;;;;5013996;28;22346;-74
2022/01/02 04:22:56;;;;;;;11.87;7.07;;;11.40;99.90;;;;;;5012834;28;20532;-74
2022/01/02 04:25:23;;;;;;;11.37;6.73;;;11.40;99.90;;;;;;5012755;28;20208;-74
2022/01/02 04:27:50;;;;;;;12.10;6.70;;;11.40;99.90;;;;;;5013438;28;20558;-74
2022/01/02 04:30:17;;;;;;;10.20;6.20;;;11.40;99.90;;;;;;5013561;28;20283;-75
2022/01/02 04:32:44;;;;;;;12.67;7.03;;;11.40;99.90;;;;;;5009800;28;20224;-74
2022/01/02 04:35:11;;;;;;;11.77;6.40;;;11.40;99.90;;;;;;5000844;28;20713;-75
2022/01/02 04:37:39;;;;;;;12.00;7.03;;;11.40;99.90;;;;;;5012490;28;20726;-74
2022/01/02 04:40:07;;;;;;;11.70;6.97;;;11.40;99.90;;;;;;5012158;28;20212;-74
2022/01/02 04:42:34;;;;;;;12.00;7.87;;;11.30;99.90;;;;;;5012107;28;20565;-74
2022/01/02 04:45:01;;;;;;;14.63;7.83;;;11.30;99.90;;;;;;5013395;28;20196;-75
2022/01/02 04:47:28;;;;;;;14.90;8.30;;;11.20;99.90;;;;;;5012485;28;20206;-74
2022/01/02 04:49:55;;;;;;;15.10;8.67;;;11.20;99.90;;;;;;5013143;28;20212;-75
2022/01/02 04:52:21;;;;;;;14.63;8.33;;;11.20;99.90;;;;;;5011961;28;20565;-74
2022/01/02 04:54:50;;;;;;;15.23;8.43;;;11.20;99.90;;;;;;5012250;28;20204;-74
2022/01/02 04:57:16;;;;;;;14.37;8.33;;;11.20;99.90;;;;;;5012323;28;20208;-75
2022/01/02 04:59:43;;;;;;;12.13;7.40;;;11.10;99.90;;;;;;5012935;28;20200;-74
2022/01/02 05:02:10;;;;;;;13.63;7.43;;;11.10;99.90;;;;;;5011779;28;20654;-74
2022/01/02 05:04:37;;;;;;;12.27;7.00;;;11.10;99.90;;;;;;5012227;28;20228;-74
2022/01/02 05:07:05;;;;;;;13.70;7.33;;;11.20;99.90;;;;;;5013184;28;20200;-74
2022/01/02 05:09:32;;;;;;;11.23;6.97;;;11.20;99.90;;;;;;5012361;28;20822;-74
2022/01/02 05:12:00;;;;;;;10.97;6.97;;;11.10;99.90;;;;;;5012036;28;20214;-74
2022/01/02 05:14:27;;;;;;;13.13;7.07;;;11.20;99.90;;;;;;5007121;28;20197;-74
2022/01/02 05:16:54;;;;;;;14.23;7.43;;;11.30;99.90;;;;;;5011592;28;20205;-75
2022/01/02 05:19:21;;;;;;;10.77;6.97;;;11.30;99.90;;;;;;5012134;28;20201;-74
2022/01/02 05:21:48;;;;;;;10.77;6.63;;;11.30;99.90;;;;;;5012128;28;20685;-74
2022/01/02 05:24:15;;;;;;;12.33;6.97;;;11.30;99.90;;;;;;5012217;28;20211;-74
2022/01/02 05:26:42;;;;;;;13.17;6.80;;;11.30;99.90;;;;;;5012147;28;20207;-74
2022/01/02 05:29:10;;;;;;;13.63;7.50;;;11.40;99.90;;;;;;5012044;28;20208;-74
2022/01/02 05:31:37;;;;;;;12.10;6.70;;;11.40;99.90;;;;;;5012210;28;20287;-74
2022/01/02 05:34:04;;;;;;;11.83;7.10;;;11.30;99.90;;;;;;5011551;28;20220;-75
2022/01/02 05:36:30;;;;;;;10.83;6.23;;;11.30;99.90;;;;;;5012162;28;20208;-74
2022/01/02 05:38:57;;;;;;;13.13;6.67;;;11.30;99.90;;;;;;5011919;28;20196;-74
2022/01/02 05:41:26;;;;;;;11.63;6.60;;;11.30;99.90;;;;;;5012157;28;20200;-74
2022/01/02 05:43:53;;;;;;;14.80;6.83;;;11.30;99.90;;;;;;5011569;28;20207;-75
2022/01/02 05:46:21;;;;;;;13.57;6.47;;;11.40;99.90;;;;;;5011429;28;20204;-74
2022/01/02 05:48:48;;;;;;;13.87;6.63;;;11.40;99.90;;;;;;5010817;28;20218;-74
2022/01/02 05:51:15;;;;;;;12.57;6.57;;;11.40;99.90;;;;;;5010984;28;20299;-74
2022/01/02 05:53:42;;;;;;;11.17;5.80;;;11.40;99.90;;;;;;5011303;28;20222;-74
2022/01/02 05:56:09;;;;;;;11.50;6.27;;;11.40;99.90;;;;;;5011962;28;20207;-74
2022/01/02 05:58:36;;;;;;;10.83;5.83;;;11.40;99.90;;;;;;5011852;28;20627;-75
2022/01/02 06:01:03;;;;;;;10.70;5.70;;;11.40;99.90;;;;;;5012256;28;20295;-74
2022/01/02 06:03:31;;;;;;;11.60;6.60;;;11.50;99.90;;;;;;5010468;28;20655;-74
2022/01/02 06:05:58;;;;;;;11.87;6.03;;;11.50;99.90;;;;;;5011472;28;20223;-74
2022/01/02 06:08:25;;;;;;;10.37;5.40;;;11.40;99.90;;;;;;5011943;28;20218;-74
2022/01/02 06:10:52;;;;;;;10.33;5.77;;;11.60;99.90;;;;;;5010987;28;20199;-74
2022/01/02 06:13:18;;;;;;;10.60;5.70;;;11.60;99.90;;;;;;5011363;28;20220;-74
2022/01/02 06:15:45;;;;;;;11.37;5.33;;;11.70;99.90;;;;;;5011931;28;20206;-74
2022/01/02 06:18:12;;;;;;;9.93;5.20;;;11.60;99.90;;;;;;5010999;28;20208;-74
2022/01/02 06:20:40;;;;;;;11.00;5.77;;;11.70;99.90;;;;;;5011976;28;20204;-74
2022/01/02 06:23:07;;;;;;;13.20;5.80;;;11.70;99.90;;;;;;5010080;28;20657;-74
2022/01/02 06:25:34;;;;;;;10.33;5.03;;;11.70;99.90;;;;;;5011581;28;20226;-75
2022/01/02 06:28:01;;;;;;;10.83;5.70;;;11.60;99.90;;;;;;5011270;28;20201;-74
2022/01/02 06:30:28;;;;;;;11.00;6.07;;;11.70;99.90;;;;;;5011310;28;20208;-73
2022/01/02 06:32:55;;;;;;;9.07;4.87;;;11.70;99.90;;;;;;5010602;28;20670;-72
2022/01/02 06:35:24;;;;;;;8.90;4.70;;;11.70;99.90;;;;;;5011788;28;20208;-73
2022/01/02 06:37:52;;;;;;;10.77;6.13;;;11.70;99.90;;;;;;5010484;28;20197;-72
2022/01/02 06:40:20;;;;;;;14.57;5.33;;;11.70;99.90;;;;;;5011727;28;20650;-72
2022/01/02 06:42:46;;;;;;;9.10;4.83;;;11.70;99.90;;;;;;5008321;28;20199;-72
2022/01/02 06:45:13;;;;;;;8.67;5.40;;;11.70;99.90;;;;;;5006538;28;20208;-72
2022/01/02 06:47:41;;;;;;;10.10;5.17;;;11.60;99.90;;;;;;5004439;28;20201;-73
2022/01/02 06:50:11;;;;;;;11.47;5.10;;;11.60;99.90;;;;;;5013392;28;20215;-72
2022/01/02 06:52:38;;;;;;;13.57;5.50;;;11.70;99.90;;;;;;5024608;28;20208;-72
2022/01/02 06:55:07;;;;;;;12.17;4.83;;;11.80;99.90;;;;;;5011862;28;20197;-72
2022/01/02 06:57:34;;;;;;;10.43;5.97;;;11.80;99.90;;;;;;5008810;28;20682;-72
2022/01/02 07:00:01;;;;;;;11.93;5.60;;;11.90;99.90;;;;;;5021972;28;20203;-73
2022/01/02 07:02:28;;;;;;;12.80;5.37;;;11.80;99.90;;;;;;5015159;28;20200;-72
2022/01/02 07:04:55;;;;;;;10.87;5.10;;;11.80;99.90;;;;;;5014829;28;20200;-73
2022/01/02 07:07:21;;;;;;;10.30;4.30;;;11.80;99.90;;;;;;5015034;28;20287;-73
2022/01/02 07:09:48;;;;;;;14.47;5.37;;;11.80;99.90;;;;;;5014603;28;20196;-72
2022/01/02 07:12:17;;;;;;;9.43;4.73;;;11.80;99.90;;;;;;5015158;28;20692;-72
2022/01/02 07:14:44;;;;;;;8.90;4.80;;;11.80;99.90;;;;;;5008280;28;20216;-73
2022/01/02 07:17:11;;;;;;;8.23;4.53;;;11.80;99.90;;;;;;5011251;28;20200;-72
2022/01/02 07:19:38;;;;;;;9.03;4.47;;;11.90;99.90;;;;;;5012357;28;20207;-72
2022/01/02 07:22:05;;;;;;;10.37;3.93;;;12.00;99.90;;;;;;5014876;28;20196;-72
2022/01/02 07:24:33;;;;;;;10.40;4.23;;;12.10;99.90;;;;;;5019333;28;20200;-72
2022/01/02 07:27:01;;;;;;;13.43;4.53;;;12.10;99.90;;;;;;5009930;28;20725;-73
2022/01/02 07:29:29;;;;;;;9.63;3.80;;;12.10;99.90;;;;;;5011579;28;20295;-72
2022/01/02 07:31:56;;;;;;;9.47;4.17;;;12.20;99.90;;;;;;5009827;28;20248;-72
2022/01/02 07:34:23;;;;;;;10.57;4.80;;;12.20;99.90;;;;;;5008778;28;20235;-72
2022/01/02 07:36:50;;;;;;;9.80;3.83;;;12.20;99.90;;;;;;5008758;28;20200;-73
2022/01/02 07:39:17;;;;;;;9.07;3.77;;;12.30;99.90;;;;;;5012832;28;20739;-72
2022/01/02 07:41:44;;;;;;;10.67;4.10;;;12.30;99.90;;;;;;5012802;28;20554;-72
2022/01/02 07:44:11;;;;;;;10.87;4.40;;;12.20;99.90;;;;;;5010990;28;20197;-72
2022/01/02 07:46:39;;;;;;;10.73;4.10;;;12.40;99.90;;;;;;5010598;28;20200;-72
2022/01/02 07:49:06;;;;;;;11.80;4.20;;;12.30;99.90;;;;;;5011767;28;20658;-72
2022/01/02 07:51:33;;;;;;;8.93;4.23;;;12.20;99.90;;;;;;5013905;28;20204;-72
2022/01/02 07:54:00;;;;;;;12.17;4.27;;;12.20;99.90;;;;;;5009674;28;20216;-73
2022/01/02 07:56:27;;;;;;;9.13;3.87;;;12.10;99.90;;;;;;5012818;28;20307;-73
2022/01/02 07:58:55;;;;;;;10.40;4.37;;;12.20;99.90;;;;;;5011745;28;20676;-73
2022/01/02 08:01:23;;;;;;;9.00;4.03;;;12.20;99.90;;;;;;5012000;28;20200;-74
2022/01/02 08:03:52;;;;;;;11.47;4.20;;;12.20;99.90;;;;;;5011921;28;20219;-73
2022/01/02 08:06:20;;;;;;;9.73;4.13;;;12.30;99.90;;;;;;5012651;28;20211;-73
2022/01/02 08:08:46;;;;;;;9.50;3.50;;;12.30;99.90;;;;;;5011786;28;20211;-73
2022/01/02 08:11:15;;;;;;;8.97;4.10;;;12.30;99.90;;;;;;5011381;28;20215;-73
2022/01/02 08:13:42;;;;;;;8.23;3.43;;;12.50;99.90;;;;;;5011768;28;20656;-73
2022/01/02 08:16:09;;;;;;;10.60;4.37;;;12.50;99.90;;;;;;5015655;28;20197;-73
2022/01/02 08:18:36;;;;;;;9.37;3.30;;;12.50;99.90;;;;;;5021231;28;20210;-73
2022/01/02 08:21:05;;;;;;;8.63;3.30;;;12.50;99.90;;;;;;5000988;28;20212;-73
2022/01/02 08:23:32;;;;;;;8.20;3.80;;;12.60;99.90;;;;;;5009338;28;20208;-73
2022/01/02 08:25:59;;;;;;;8.03;3.70;;;12.50;99.90;;;;;;5004681;28;20651;-73
2022/01/02 08:28:26;;;;;;;9.33;3.90;;;12.60;99.90;;;;;;5002304;28;20211;-73
2022/01/02 08:30:53;;;;;;;9.00;3.80;;;12.50;99.90;;;;;;5006253;28;20205;-73
2022/01/02 08:33:20;;;;;;;8.07;3.40;;;12.60;99.90;;;;;;5006980;28;20224;-73
2022/01/02 08:35:48;;;;;;;7.20;4.00;;;12.50;99.90;;;;;;5004857;28;20585;-73
2022/01/02 08:38:16;;;;;;;9.83;4.03;;;12.50;99.90;;;;;;5004395;28;20623;-73
2022/01/02 08:40:44;;;;;;;9.33;4.57;;;12.70;99.90;;;;;;5015941;28;20204;-73
2022/01/02 08:43:11;;;;;;;10.53;4.20;;;12.60;99.90;;;;;;5002211;28;20197;-73
2022/01/02 08:45:38;;;;;;;8.20;3.60;;;12.60;99.90;;;;;;5009275;28;20577;-72
2022/01/02 08:48:06;;;;;;;9.17;3.63;;;12.70;99.90;;;;;;4997569;28;20643;-72
2022/01/02 08:50:33;;;;;;;7.77;3.93;;;12.70;99.90;;;;;;5005161;28;20658;-72
2022/01/02 08:53:01;;;;;;;7.47;4.03;;;12.70;99.90;;;;;;5000801;28;20197;-72
2022/01/02 08:55:29;;;;;;;9.70;3.93;;;12.70;99.90;;;;;;4994319;28;20228;-73
2022/01/02 08:57:56;;;;;;;9.60;4.10;;;12.60;99.90;;;;;;5000705;28;20208;-73
2022/01/02 09:00:23;;;;;;;8.87;4.50;;;12.50;99.90;;;;;;5008382;28;20662;-73
2022/01/02 09:02:50;;;;;;;9.10;3.80;;;12.50;99.90;;;;;;5003097;28;20207;-72
2022/01/02 09:05:17;;;;;;;8.60;4.00;;;12.50;99.90;;;;;;5006469;28;20211;-72
2022/01/02 09:07:44;;;;;;;11.27;4.00;;;12.50;99.90;;;;;;5000044;28;20260;-73
2022/01/02 09:10:10;;;;;;;8.60;3.80;;;12.40;99.90;;;;;;5002415;28;20210;-73
2022/01/02 09:12:39;;;;;;;7.33;4.17;;;12.50;99.90;;;;;;5004372;28;20583;-73
2022/01/02 09:15:06;;;;;;;10.57;4.30;;;12.50;99.90;;;;;;4999856;28;20214;-73
2022/01/02 09:17:33;;;;;;;9.67;4.70;;;12.40;99.90;;;;;;5001763;28;20201;-73
2022/01/02 09:20:00;;;;;;;9.77;5.20;;;12.30;99.90;;;;;;5009493;28;20201;-72
2022/01/02 09:22:26;;;;;;;10.57;5.40;;;12.20;99.90;;;;;;5010841;28;20207;-72
2022/01/02 09:24:53;;;;;;;9.50;4.90;;;12.10;99.90;;;;;;5011086;28;20282;-72
2022/01/02 09:27:20;;;;;;;10.23;5.40;;;12.00;99.90;;;;;;5011938;28;20633;-74
2022/01/02 09:29:49;;;;;;;9.87;5.67;;;12.00;99.90;;;;;;5011239;28;20209;-74
2022/01/02 09:32:16;;;;;;;10.97;5.73;;;12.00;99.90;;;;;;5009931;28;20211;-75
2022/01/02 09:34:43;;;;;;;13.27;5.83;;;12.00;99.90;;;;;;5002511;28;20227;-75
2022/01/02 09:37:10;;;;;;;9.17;5.80;;;12.00;99.90;;;;;;5009083;28;20651;-76
2022/01/02 09:39:37;;;;;;;13.43;6.23;;;12.00;99.90;;;;;;5006670;28;20267;-74
2022/01/02 09:42:04;;;;;;;9.53;6.40;;;12.00;99.90;;;;;;5009118;28;20200;-74
2022/01/02 09:44:32;;;;;;;12.70;6.63;;;12.10;99.90;;;;;;5006306;28;20196;-73
2022/01/02 09:47:01;;;;;;;13.87;6.93;;;12.10;99.90;;;;;;5003976;28;20632;-74
2022/01/02 09:49:28;;;;;;;13.17;6.23;;;12.10;99.90;;;;;;5004013;28;20642;-76
2022/01/02 09:51:55;;;;;;;12.20;6.80;;;12.00;99.90;;;;;;5008514;28;20283;-76
2022/01/02 09:54:23;;;;;;;13.13;6.97;;;12.00;99.90;;;;;;5008470;28;20224;-77
2022/01/02 09:56:50;;;;;;;11.23;6.63;;;12.00;99.90;;;;;;5009608;28;20235;-77
2022/01/02 09:59:17;;;;;;;11.67;7.23;;;12.00;99.90;;;;;;5010137;28;20616;-73
2022/01/02 10:01:44;;;;;;;11.17;7.07;;;11.90;99.90;;;;;;5011099;28;20240;-74
2022/01/02 10:04:15;;;;;;;11.53;7.00;;;11.90;99.90;;;;;;5010122;28;20717;-74
2022/01/02 10:06:46;;;;;;;13.33;6.87;;;11.90;99.90;;;;;;5009767;28;20236;-73
2022/01/02 10:09:17;;;;;;;13.80;7.80;;;11.90;99.90;;;;;;5010304;28;20208;-73
2022/01/02 10:11:44;;;;;;;11.77;7.10;;;11.90;99.90;;;;;;5009625;28;20254;-73
2022/01/02 10:14:11;;;;;;;13.50;7.13;;;11.90;99.90;;;;;;5009467;28;20224;-74
2022/01/02 10:16:40;;;;;;;11.73;7.47;;;11.90;99.90;;;;;;5009562;28;20247;-74
2022/01/02 10:19:26;;;;;;;13.70;7.77;;;11.90;99.90;;;;;;5010188;28;20208;-73
2022/01/02 10:21:55;;;;;;;14.90;7.17;;;11.90;99.90;;;;;;5010390;28;20209;-74
2022/01/02 10:24:26;;;;;;;14.07;6.70;;;12.00;99.90;;;;;;5014316;28;20215;-74
2022/01/02 10:27:13;;;;;;;13.20;6.80;;;12.00;99.90;;;;;;5013710;28;20216;-73
2022/01/02 10:29:46;;;;;;;14.03;7.20;;;12.10;99.90;;;;;;5012514;28;20196;-74
2022/01/02 10:32:30;;;;;;;10.43;6.00;;;12.10;99.90;;;;;;5005106;28;20273;-74
2022/01/02 10:35:21;;;;;;;11.80;6.60;;;12.10;99.90;;;;;;5011612;28;20674;-74
2022/01/02 10:37:51;;;;;;;11.73;6.30;;;12.10;99.90;;;;;;5000828;28;20208;-74
2022/01/02 10:40:27;;;;;;;13.77;6.70;;;12.10;99.90;;;;;;5014407;28;20852;-74
2022/01/02 10:42:54;;;;;;;11.00;6.27;;;12.20;99.90;;;;;;5014118;28;20204;-74
2022/01/02 10:45:32;;;;;;;10.80;5.67;;;12.20;99.90;;;;;;5018259;28;20247;-74
2022/01/02 10:47:59;;;;;;;13.13;6.73;;;12.20;99.90;;;;;;5014479;28;20239;-74
2022/01/02 10:50:28;;;;;;;10.90;6.47;;;12.30;99.90;;;;;;5014101;28;20250;-74
2022/01/02 10:52:55;;;;;;;12.63;5.87;;;12.30;99.90;;;;;;5014445;28;20247;-74
2022/01/02 10:55:24;;;;;;;9.90;5.07;;;12.40;99.90;;;;;;5016207;28;20278;-74
2022/01/02 10:57:53;;;;;;;9.40;5.17;;;12.60;99.90;;;;;;5013723;28;20248;-74
2022/01/02 11:00:23;;;;;;;10.50;5.73;;;12.70;99.90;;;;;;5010682;28;20262;-74
2022/01/02 11:02:50;;;;;;;14.00;5.60;;;12.80;99.90;;;;;;5008707;28;20257;-73
2022/01/02 11:05:19;;;;;;;10.03;4.53;;;12.70;99.90;;;;;;5007127;28;20495;-73
2022/01/02 11:07:49;;;;;;;8.90;4.30;;;12.80;99.90;;;;;;5012597;28;20236;-73
2022/01/02 11:10:17;;;;;;;6.43;4.40;;;12.80;99.90;;;;;;5010903;28;20209;-73
2022/01/02 11:12:45;;;;;;;14.70;4.30;;;12.90;99.90;;;;;;5010137;28;20204;-74
2022/01/02 11:15:14;;;;;;;10.77;4.27;;;13.10;99.90;;;;;;5012184;28;20717;-74
2022/01/02 11:17:42;;;;;;;14.23;4.50;;;13.20;99.90;;;;;;5009658;28;20291;-73
2022/01/02 11:20:11;;;;;;;10.53;4.00;;;13.30;99.90;;;;;;5009825;28;20196;-73
2022/01/02 11:22:43;;;;;;;7.00;3.53;;;13.40;99.90;;;;;;5011437;28;20244;-73
2022/01/02 11:25:20;;;;;;;10.27;3.47;;;13.50;99.90;;;;;;5009449;28;20283;-73
2022/01/02 11:27:53;;;;;;;7.10;3.40;;;13.60;99.90;;;;;;5009653;28;20204;-73
2022/01/02 11:30:40;;;;;;;6.97;3.23;;;13.60;99.90;;;;;;5012484;28;20215;-73
2022/01/02 11:33:09;;;;;;;5.53;3.23;;;13.60;99.90;;;;;;5006148;28;20208;-73
2022/01/02 11:35:39;;;;;;;7.23;3.60;;;13.50;99.90;;;;;;5005326;28;20295;-73
2022/01/02 11:38:07;;;;;;;6.33;3.30;;;13.50;99.90;;;;;;5009923;28;20204;-73
2022/01/02 11:40:47;;;;;;;7.93;3.17;;;13.50;99.90;;;;;;5011311;28;20650;-73
2022/01/02 11:43:52;;;;;;;5.70;2.87;;;13.60;99.90;;;;;;5013066;28;20641;-73
2022/01/02 11:46:25;;;;;;;6.50;2.97;;;13.70;99.90;;;;;;5006037;28;20200;-73
2022/01/02 11:49:15;;;;;;;7.13;2.80;;;13.80;99.90;;;;;;5010229;28;20200;-73
2022/01/02 11:52:06;;;;;;;10.33;3.10;;;13.80;99.90;;;;;;5009493;28;20231;-73
2022/01/02 11:54:48;;;;;;;5.37;2.77;;;13.80;99.90;;;;;;5007976;28;20231;-73
2022/01/02 11:57:53;;;;;;;5.93;3.20;;;13.80;99.90;;;;;;5011362;28;20216;-73
2022/01/02 12:00:36;;;;;;;6.70;3.50;;;13.90;99.90;;;;;;5009775;28;20254;-73
2022/01/02 12:03:03;;;;;;;7.40;3.13;;;14.50;99.90;;;;;;5011355;28;20334;-73
2022/01/02 12:05:31;;;;;;;7.37;3.50;;;14.20;99.90;;;;;;5012321;28;20212;-73
2022/01/02 12:07:58;;;;;;;4.87;2.93;;;13.90;99.90;;;;;;5010835;28;20205;-73
2022/01/02 12:10:30;;;;;;;5.23;3.10;;;13.80;99.90;;;;;;5010349;28;20666;-73
2022/01/02 12:13:16;;;;;;;8.23;3.40;;;13.70;99.90;;;;;;5007579;28;20204;-74
2022/01/02 12:16:11;;;;;;;8.00;3.80;;;13.60;99.90;;;;;;5009513;28;20234;-73
2022/01/02 12:18:57;;;;;;;10.10;4.60;;;13.50;99.90;;;;;;5011501;28;20210;-73
2022/01/02 12:21:25;;;;;;;7.57;4.43;;;13.60;99.90;;;;;;5009441;28;20205;-73
2022/01/02 12:23:56;;;;;;;6.33;4.17;;;13.60;99.90;;;;;;5008793;28;20574;-73
2022/01/02 12:26:29;;;;;;;10.00;5.17;;;13.40;99.90;;;;;;5011766;28;20208;-73
2022/01/02 12:28:58;;;;;;;5.60;3.60;;;13.20;99.90;;;;;;5013469;28;20254;-73
2022/01/02 12:31:32;;;;;;;7.07;3.50;;;13.20;99.90;;;;;;5008061;28;20209;-73
2022/01/02 12:34:08;;;;;;;5.93;3.77;;;13.10;99.90;;;;;;5010441;28;20211;-73
2022/01/02 12:36:35;;;;;;;6.27;3.60;;;13.10;99.90;;;;;;5010237;28;20223;-73
2022/01/02 12:39:06;;;;;;;5.23;4.00;;;13.40;99.90;;;;;;5010936;28;20200;-73
2022/01/02 12:41:35;;;;;;;3.10;2.80;;;13.40;99.90;;;;;;5008848;28;20780;-73
2022/01/02 12:44:04;;;;;;;5.77;2.97;;;13.40;99.90;;;;;;5009977;28;20315;-73
2022/01/02 12:46:52;;;;;;;8.83;3.87;;;13.50;99.90;;;;;;5009407;28;20276;-73
2022/01/02 12:49:22;;;;;;;4.43;3.20;;;13.40;99.90;;;;;;5010795;28;20212;-73
2022/01/02 12:51:50;;;;;;;7.27;3.60;;;13.50;99.90;;;;;;5008837;28;20231;-73
2022/01/02 12:54:20;;;;;;;6.07;4.23;;;14.00;99.90;;;;;;5009045;28;20278;-73